createdAt,value
2019-01-21T00:01:42.143Z,-1.28
2019-01-21T00:04:29.458Z,-1.21
2019-01-21T00:07:16.827Z,-1.14
2019-01-21T00:10:05.190Z,-1.14
2019-01-21T00:12:52.082Z,-1.14
2019-01-21T00:15:39.745Z,-1.10
2019-01-21T00:18:26.974Z,-1.08
2019-01-21T00:21:14.342Z,-1.10
2019-01-21T00:24:01.633Z,-1.07
2019-01-21T00:26:48.964Z,-1.09
2019-01-21T00:29:35.983Z,-1.11
2019-01-21T00:32:23.466Z,-1.10
2019-01-21T00:35:10.921Z,-1.12
2019-01-21T00:37:58.422Z,-1.11
2019-01-21T00:40:45.608Z,-1.13
2019-01-21T00:43:32.853Z,-1.16
2019-01-21T00:46:19.995Z,-1.23
2019-01-21T00:49:07.250Z,-1.25
2019-01-21T00:51:54.828Z,-1.26
2019-01-21T00:54:42.253Z,-1.39
2019-01-21T00:57:29.515Z,-1.41
2019-01-21T01:00:22.524Z,-1.39
2019-01-21T01:03:09.838Z,-1.37
2019-01-21T01:05:57.143Z,-1.38
2019-01-21T01:08:44.192Z,-1.35
2019-01-21T01:11:31.513Z,-1.46
2019-01-21T01:14:18.508Z,-1.52
2019-01-21T01:17:05.812Z,-1.57
2019-01-21T01:19:52.754Z,-1.57
2019-01-21T01:22:39.815Z,-1.61
2019-01-21T01:25:27.198Z,-1.57
2019-01-21T01:28:14.162Z,-1.66
2019-01-21T01:31:01.360Z,-1.70
2019-01-21T01:33:48.965Z,-1.70
2019-01-21T01:36:36.492Z,-1.76
2019-01-21T01:39:23.917Z,-1.80
2019-01-21T01:42:10.872Z,-1.79
2019-01-21T01:44:58.564Z,-1.85
2019-01-21T01:47:45.766Z,-1.89
2019-01-21T01:50:32.989Z,-1.91
2019-01-21T01:53:20.294Z,-1.95
2019-01-21T01:56:08.226Z,-2.00
2019-01-21T01:58:55.778Z,-2.01
2019-01-21T02:01:43.551Z,-2.01
2019-01-21T02:04:30.675Z,-2.14
2019-01-21T02:07:18.255Z,-2.18
2019-01-21T02:10:13.902Z,-2.18
2019-01-21T02:13:00.872Z,-2.20
2019-01-21T02:15:47.783Z,-2.20
2019-01-21T02:18:35.007Z,-2.20
2019-01-21T02:21:23.732Z,-2.26
2019-01-21T02:24:12.411Z,-2.29
2019-01-21T02:27:05.187Z,-2.31
2019-01-21T02:29:55.074Z,-2.33
2019-01-21T02:32:51.262Z,-2.37
2019-01-21T02:35:41.486Z,-2.41
2019-01-21T02:38:46.352Z,-2.41
2019-01-21T02:41:35.362Z,-2.47
2019-01-21T02:44:25.585Z,-2.51
2019-01-21T02:47:19.178Z,-2.57
2019-01-21T02:50:21.278Z,-2.58
2019-01-21T02:53:20.529Z,-2.67
2019-01-21T02:56:13.613Z,-2.69
2019-01-21T02:59:12.817Z,-2.71
2019-01-21T03:02:08.797Z,-2.76
2019-01-21T03:05:07.878Z,-2.80
2019-01-21T03:08:13.004Z,-2.84
2019-01-21T03:11:22.524Z,-2.87
2019-01-21T03:14:15.978Z,-2.92
2019-01-21T03:17:20.951Z,-2.93
2019-01-21T03:20:11.078Z,-2.99
2019-01-21T03:23:16.055Z,-3.04
2019-01-21T03:26:20.935Z,-3.09
2019-01-21T03:29:20.258Z,-3.10
2019-01-21T03:32:30.217Z,-3.12
2019-01-21T03:35:23.216Z,-3.20
2019-01-21T03:38:13.324Z,-3.25
2019-01-21T03:41:06.588Z,-3.29
2019-01-21T03:44:03.021Z,-3.32
2019-01-21T03:47:02.194Z,-3.35
2019-01-21T03:50:03.901Z,-3.36
2019-01-21T03:53:02.944Z,-3.57
2019-01-21T03:55:53.894Z,-3.56
2019-01-21T03:58:49.675Z,-3.53
2019-01-21T04:02:00.806Z,-3.51
2019-01-21T04:05:03.004Z,-3.48
2019-01-21T04:08:08.002Z,-3.52
2019-01-21T04:11:03.841Z,-3.59
2019-01-21T04:14:10.192Z,-3.61
2019-01-21T04:17:02.893Z,-3.62
2019-01-21T04:19:58.759Z,-3.65
2019-01-21T04:23:11.428Z,-3.66
2019-01-21T04:26:22.483Z,-3.66
2019-01-21T04:29:15.669Z,-3.66
2019-01-21T04:32:12.008Z,-3.64
2019-01-21T04:35:14.064Z,-3.64
2019-01-21T04:38:10.277Z,-3.62
2019-01-21T04:41:06.857Z,-3.61
2019-01-21T04:44:02.863Z,-3.59
2019-01-21T04:46:53.379Z,-3.60
2019-01-21T04:49:49.584Z,-3.61
2019-01-21T04:53:03.323Z,-3.59
2019-01-21T04:55:53.979Z,-3.56
2019-01-21T04:58:55.834Z,-3.53
2019-01-21T05:02:06.955Z,-3.51
2019-01-21T05:05:03.138Z,-3.50
2019-01-21T05:08:05.304Z,-3.49
2019-01-21T05:11:30.502Z,-3.48
2019-01-21T05:14:26.993Z,-3.46
2019-01-21T05:17:39.711Z,-3.44
2019-01-21T05:20:42.144Z,-3.40
2019-01-21T05:23:35.255Z,-3.38
2019-01-21T05:26:31.274Z,-3.36
2019-01-21T05:29:41.241Z,-3.35
2019-01-21T05:32:49.441Z,-3.40
2019-01-21T05:35:48.604Z,-3.85
2019-01-21T05:39:07.711Z,-4.04
2019-01-21T05:42:14.486Z,-3.77
2019-01-21T05:45:20.910Z,-3.67
2019-01-21T05:48:30.952Z,-3.63
2019-01-21T05:51:53.929Z,-3.59
2019-01-21T05:54:56.445Z,-3.64
2019-01-21T05:58:06.344Z,-3.75
2019-01-21T06:00:56.680Z,-3.69
2019-01-21T06:04:03.133Z,-3.69
2019-01-21T06:07:09.810Z,-3.69
2019-01-21T06:10:00.608Z,-3.79
2019-01-21T06:12:54.726Z,-3.73
2019-01-21T06:15:53.618Z,-3.67
2019-01-21T06:18:56.958Z,-3.70
2019-01-21T06:21:47.283Z,-3.64
2019-01-21T06:24:46.193Z,-3.63
2019-01-21T06:28:11.065Z,-3.64
2019-01-21T06:31:33.649Z,-3.63
2019-01-21T06:34:59.455Z,-3.65
2019-01-21T06:37:50.109Z,-3.64
2019-01-21T06:40:43.667Z,-3.64
2019-01-21T06:43:48.973Z,-3.62
2019-01-21T06:46:57.177Z,-3.70
2019-01-21T06:50:02.326Z,-3.63
2019-01-21T06:53:12.087Z,-3.57
2019-01-21T06:56:18.691Z,-3.57
2019-01-21T06:59:14.913Z,-3.59
2019-01-21T07:05:24.403Z,-3.59
2019-01-21T07:08:26.495Z,-3.64
2019-01-21T07:11:33.709Z,-3.66
2019-01-21T07:14:52.588Z,-3.64
2019-01-21T07:17:59.687Z,-3.68
2019-01-21T07:20:53.288Z,-3.69
2019-01-21T07:24:00.087Z,-3.67
2019-01-21T07:26:56.591Z,-3.66
2019-01-21T07:29:49.578Z,-3.80
2019-01-21T07:32:42.340Z,-4.03
2019-01-21T07:35:35.748Z,-4.01
2019-01-21T07:38:34.901Z,-3.84
2019-01-21T07:41:40.109Z,-3.84
2019-01-21T07:44:42.277Z,-3.84
2019-01-21T07:47:41.790Z,-3.76
2019-01-21T07:50:54.452Z,-3.74
2019-01-21T07:53:56.406Z,-3.72
2019-01-21T07:57:21.426Z,-3.65
2019-01-21T08:00:14.050Z,-3.56
2019-01-21T08:03:04.308Z,-3.51
2019-01-21T08:05:57.083Z,-3.44
2019-01-21T08:08:50.171Z,-3.35
2019-01-21T08:12:01.396Z,-3.29
2019-01-21T08:14:51.793Z,-3.21
2019-01-21T08:17:47.682Z,-3.11
2019-01-21T08:20:43.550Z,-3.02
2019-01-21T08:23:36.880Z,-3.02
2019-01-21T08:26:30.337Z,-2.93
2019-01-21T08:29:26.563Z,-2.85
2019-01-21T08:32:28.400Z,-2.80
2019-01-21T08:35:24.450Z,-2.99
2019-01-21T08:38:26.827Z,-2.74
2019-01-21T08:41:20.200Z,-2.89
2019-01-21T08:44:22.261Z,-3.07
2019-01-21T08:47:15.374Z,-3.19
2019-01-21T08:50:20.661Z,-2.68
2019-01-21T08:53:29.070Z,-2.54
2019-01-21T08:56:22.432Z,-2.31
2019-01-21T08:59:21.083Z,-2.22
2019-01-21T09:02:17.851Z,-2.33
2019-01-21T09:05:24.513Z,-2.34
2019-01-21T09:08:17.159Z,-2.31
2019-01-21T09:11:36.185Z,-2.68
2019-01-21T09:14:41.438Z,-2.43
2019-01-21T09:17:31.603Z,-1.95
2019-01-21T09:20:24.706Z,-1.88
2019-01-21T09:23:47.779Z,-1.78
2019-01-21T09:26:40.756Z,-1.81
2019-01-21T09:29:46.167Z,-1.43
2019-01-21T09:32:45.058Z,-1.22
2019-01-21T09:35:40.942Z,-1.03
2019-01-21T09:38:50.587Z,-0.87
2019-01-21T09:41:46.978Z,-0.77
2019-01-21T09:44:48.934Z,-0.56
2019-01-21T09:47:35.078Z,-0.20
2019-01-21T09:50:22.369Z,0.06
2019-01-21T09:53:09.933Z,0.37
2019-01-21T09:55:57.600Z,0.58
2019-01-21T09:58:45.446Z,0.73
2019-01-21T10:01:33.896Z,-0.21
2019-01-21T10:04:24.372Z,0.19
2019-01-21T10:07:26.261Z,0.60
2019-01-21T10:10:28.640Z,0.84
2019-01-21T10:13:36.574Z,1.06
2019-01-21T10:16:38.716Z,1.18
2019-01-21T10:19:31.621Z,1.16
2019-01-21T10:22:38.114Z,1.24
2019-01-21T10:25:40.189Z,1.37
2019-01-21T10:28:53.079Z,1.40
2019-01-21T10:31:59.353Z,1.48
2019-01-21T10:35:07.401Z,1.61
2019-01-21T10:38:13.776Z,1.73
2019-01-21T10:41:03.951Z,1.87
2019-01-21T10:44:12.008Z,2.04
2019-01-21T10:47:14.150Z,2.19
2019-01-21T10:50:19.132Z,2.35
2019-01-21T10:53:18.542Z,2.55
2019-01-21T10:56:08.651Z,2.76
2019-01-21T10:59:13.497Z,2.94
2019-01-21T11:02:15.587Z,3.02
2019-01-21T11:05:11.473Z,3.17
2019-01-21T11:08:01.933Z,3.14
2019-01-21T11:10:52.405Z,2.94
2019-01-21T11:14:12.379Z,2.99
2019-01-21T11:17:13.365Z,3.19
2019-01-21T11:20:04.476Z,3.31
2019-01-21T11:23:00.707Z,3.22
2019-01-21T11:26:13.046Z,2.77
2019-01-21T11:29:15.799Z,2.50
2019-01-21T11:32:26.058Z,2.56
2019-01-21T11:35:34.780Z,2.72
2019-01-21T11:38:34.592Z,2.55
2019-01-21T11:41:43.932Z,2.20
2019-01-21T11:44:46.611Z,2.35
2019-01-21T11:48:00.970Z,2.80
2019-01-21T11:51:00.322Z,3.18
2019-01-21T11:54:05.619Z,3.17
2019-01-21T11:57:05.353Z,3.43
2019-01-21T12:00:14.151Z,3.75
2019-01-21T12:03:10.490Z,3.95
2019-01-21T12:06:00.241Z,4.03
2019-01-21T12:08:53.588Z,4.12
2019-01-21T12:11:46.896Z,4.37
2019-01-21T12:14:46.914Z,4.56
2019-01-21T12:17:43.550Z,4.71
2019-01-21T12:21:03.223Z,4.78
2019-01-21T12:24:02.123Z,4.89
2019-01-21T12:27:01.826Z,4.94
2019-01-21T12:30:08.501Z,4.99
2019-01-21T12:33:29.210Z,5.14
2019-01-21T12:36:20.007Z,5.18
2019-01-21T12:39:25.764Z,5.21
2019-01-21T12:42:22.810Z,5.28
2019-01-21T12:45:25.904Z,5.42
2019-01-21T12:48:21.927Z,5.40
2019-01-21T12:51:34.247Z,5.44
2019-01-21T12:54:27.541Z,5.41
2019-01-21T12:57:30.284Z,5.34
2019-01-21T13:00:42.280Z,5.36
2019-01-21T13:03:44.968Z,5.37
2019-01-21T13:07:03.226Z,5.34
2019-01-21T13:09:53.806Z,5.32
2019-01-21T13:13:06.965Z,5.43
2019-01-21T13:16:12.290Z,5.43
2019-01-21T13:19:28.678Z,5.19
2019-01-21T13:22:28.614Z,5.19
2019-01-21T13:25:43.634Z,5.21
2019-01-21T13:28:34.168Z,5.44
2019-01-21T13:31:31.223Z,5.54
2019-01-21T13:34:30.721Z,5.68
2019-01-21T13:37:39.656Z,5.51
2019-01-21T13:40:48.275Z,5.69
2019-01-21T13:43:50.647Z,5.74
2019-01-21T13:46:52.918Z,5.55
2019-01-21T13:49:58.886Z,5.53
2019-01-21T13:53:08.133Z,5.49
2019-01-21T13:56:04.543Z,5.56
2019-01-21T13:59:01.212Z,5.40
2019-01-21T14:01:51.887Z,5.35
2019-01-21T14:04:42.703Z,4.99
2019-01-21T14:07:57.555Z,5.07
2019-01-21T14:10:51.531Z,5.06
2019-01-21T14:13:44.513Z,5.06
2019-01-21T14:16:41.123Z,5.10
2019-01-21T14:19:37.354Z,5.09
2019-01-21T14:22:36.861Z,5.25
2019-01-21T14:25:43.027Z,5.22
2019-01-21T14:28:38.847Z,5.23
2019-01-21T14:31:38.456Z,5.21
2019-01-21T14:34:51.481Z,5.08
2019-01-21T14:37:42.180Z,5.04
2019-01-21T14:40:53.785Z,4.99
2019-01-21T14:43:47.046Z,4.97
2019-01-21T14:46:46.655Z,4.85
2019-01-21T14:49:43.184Z,4.80
2019-01-21T14:52:39.726Z,4.77
2019-01-21T14:55:35.568Z,4.69
2019-01-21T14:58:41.393Z,4.65
2019-01-21T15:01:47.277Z,4.62
2019-01-21T15:04:54.540Z,4.57
2019-01-21T15:07:45.440Z,4.50
2019-01-21T15:11:10.958Z,4.37
2019-01-21T15:14:04.349Z,4.29
2019-01-21T15:17:21.897Z,4.16
2019-01-21T15:20:12.564Z,4.07
2019-01-21T15:23:09.118Z,3.98
2019-01-21T15:26:27.130Z,3.91
2019-01-21T15:29:32.840Z,3.77
2019-01-21T15:32:36.097Z,3.65
2019-01-21T15:35:29.040Z,3.49
2019-01-21T15:38:19.428Z,3.38
2019-01-21T15:41:18.907Z,3.30
2019-01-21T15:44:12.378Z,3.22
2019-01-21T15:47:24.290Z,3.12
2019-01-21T15:50:17.457Z,2.97
2019-01-21T15:53:10.643Z,2.80
2019-01-21T15:56:19.333Z,2.73
2019-01-21T15:59:18.843Z,2.69
2019-01-21T16:02:18.262Z,2.64
2019-01-21T16:05:14.174Z,2.60
2019-01-21T16:08:06.307Z,2.55
2019-01-21T16:11:02.638Z,2.50
2019-01-21T16:13:51.465Z,2.42
2019-01-21T16:16:44.967Z,2.33
2019-01-21T16:19:33.191Z,2.29
2019-01-21T16:22:29.236Z,2.19
2019-01-21T16:25:31.577Z,2.14
2019-01-21T16:28:37.872Z,2.03
2019-01-21T16:31:28.229Z,1.94
2019-01-21T16:34:36.166Z,1.83
2019-01-21T16:37:35.468Z,1.75
2019-01-21T16:40:29.042Z,1.64
2019-01-21T16:43:16.674Z,1.53
2019-01-21T16:46:04.413Z,1.46
2019-01-21T16:48:51.717Z,1.40
2019-01-21T16:51:39.259Z,1.39
2019-01-21T16:54:26.566Z,1.36
2019-01-21T16:57:14.400Z,1.32
2019-01-21T17:00:02.239Z,1.24
2019-01-21T17:02:49.760Z,1.15
2019-01-21T17:05:37.491Z,1.08
2019-01-21T17:08:25.222Z,0.99
2019-01-21T17:11:13.053Z,0.97
2019-01-21T17:14:00.786Z,0.90
2019-01-21T17:16:48.517Z,0.81
2019-01-21T17:19:36.153Z,0.76
2019-01-21T17:22:23.775Z,0.68
2019-01-21T17:25:11.623Z,0.63
2019-01-21T17:27:59.032Z,0.59
2019-01-21T17:30:46.665Z,0.59
2019-01-21T17:33:34.302Z,0.51
2019-01-21T17:36:21.611Z,0.44
2019-01-21T17:39:09.239Z,0.41
2019-01-21T17:41:56.766Z,0.31
2019-01-21T17:44:44.498Z,0.23
2019-01-21T17:47:31.818Z,0.15
2019-01-21T17:50:19.656Z,0.09
2019-01-21T17:53:07.488Z,0.12
2019-01-21T17:55:55.680Z,0.13
2019-01-21T17:58:44.022Z,0.10
2019-01-21T18:01:31.398Z,0.03
2019-01-21T18:04:18.718Z,-0.06
2019-01-21T18:07:06.755Z,-0.09
2019-01-21T18:09:54.692Z,-0.11
2019-01-21T18:12:42.011Z,-0.19
2019-01-21T18:15:29.438Z,-0.28
2019-01-21T18:18:17.637Z,-0.28
2019-01-21T18:21:05.206Z,-0.30
2019-01-21T18:23:52.837Z,-0.29
2019-01-21T18:26:40.671Z,-0.39
2019-01-21T18:29:28.715Z,-0.48
2019-01-21T18:32:16.655Z,-0.51
2019-01-21T18:35:05.039Z,-0.58
2019-01-21T18:37:52.822Z,-0.60
2019-01-21T18:40:40.151Z,-0.61
2019-01-21T18:43:27.775Z,-0.64
2019-01-21T18:46:15.405Z,-0.63
2019-01-21T18:49:02.826Z,-0.63
2019-01-21T18:51:50.624Z,-0.60
2019-01-21T18:54:38.082Z,-0.65
2019-01-21T18:57:25.713Z,-0.67
2019-01-21T19:00:19.285Z,-0.73
2019-01-21T19:03:06.906Z,-0.78
2019-01-21T19:05:54.742Z,-0.83
2019-01-21T19:08:42.372Z,-0.88
2019-01-21T19:11:30.103Z,-0.95
2019-01-21T19:14:17.322Z,-0.95
2019-01-21T19:17:05.256Z,-0.98
2019-01-21T19:19:52.681Z,-0.99
2019-01-21T19:22:40.416Z,-1.03
2019-01-21T19:25:28.044Z,-1.06
2019-01-21T19:28:16.119Z,-1.09
2019-01-21T19:31:04.934Z,-1.13
2019-01-21T19:33:52.563Z,-1.16
2019-01-21T19:36:39.892Z,-1.16
2019-01-21T19:39:27.922Z,-1.15
2019-01-21T19:42:15.143Z,-1.19
2019-01-21T19:45:03.081Z,-1.24
2019-01-21T19:47:51.115Z,-1.30
2019-01-21T19:50:39.050Z,-1.32
2019-01-21T19:53:26.987Z,-1.33
2019-01-21T19:56:14.719Z,-1.40
2019-01-21T19:59:02.243Z,-1.49
2019-01-21T20:01:50.184Z,-1.51
2019-01-21T20:04:37.913Z,-1.55
2019-01-21T20:07:25.241Z,-1.52
2019-01-21T20:10:15.836Z,-1.51
2019-01-21T20:13:03.254Z,-1.52
2019-01-21T20:15:51.088Z,-1.57
2019-01-21T20:18:38.723Z,-1.57
2019-01-21T20:21:26.450Z,-1.57
2019-01-21T20:24:14.389Z,-1.54
2019-01-21T20:27:02.996Z,-1.52
2019-01-21T20:29:50.464Z,-1.56
2019-01-21T20:32:38.195Z,-1.59
2019-01-21T20:35:25.829Z,-1.64
2019-01-21T20:38:13.145Z,-1.65
2019-01-21T20:41:00.566Z,-1.66
2019-01-21T20:43:48.509Z,-1.68
2019-01-21T20:46:36.342Z,-1.72
2019-01-21T20:49:23.658Z,-1.75
2019-01-21T20:52:14.166Z,-1.82
2019-01-21T20:55:00.468Z,-1.86
2019-01-21T20:57:48.600Z,-1.93
2019-01-21T21:00:36.538Z,-1.94
2019-01-21T21:03:24.564Z,-1.95
2019-01-21T21:06:12.399Z,-2.03
2019-01-21T21:09:00.078Z,-2.07
2019-01-21T21:11:48.146Z,-2.09
2019-01-21T21:14:35.899Z,-2.10
2019-01-21T21:17:23.732Z,-2.14
2019-01-21T21:20:13.296Z,-6.12
2019-01-21T21:23:01.037Z,-2.25
2019-01-21T21:25:48.907Z,-2.28
2019-01-21T21:28:36.708Z,-2.31
2019-01-21T21:31:24.029Z,-2.32
2019-01-21T21:34:12.072Z,-2.34
2019-01-21T21:37:00.002Z,-2.37
2019-01-21T21:39:47.435Z,-2.39
2019-01-21T21:42:35.357Z,-2.37
2019-01-21T21:45:23.538Z,-2.40
2019-01-21T21:48:11.541Z,-2.43
2019-01-21T21:50:59.372Z,-2.44
2019-01-21T21:53:46.698Z,-2.46
2019-01-21T21:56:34.117Z,-2.49
2019-01-21T21:59:21.542Z,-2.56
2019-01-21T22:02:09.374Z,-2.54
2019-01-21T22:04:56.797Z,-2.56
2019-01-21T22:07:44.836Z,-2.55
2019-01-21T22:10:32.774Z,-2.56
2019-01-21T22:13:20.505Z,-2.61
2019-01-21T22:16:08.441Z,-2.61
2019-01-21T22:18:56.392Z,-2.63
2019-01-21T22:21:44.216Z,-2.66
2019-01-21T22:24:33.179Z,-2.69
2019-01-21T22:27:21.125Z,-2.69
2019-01-21T22:30:15.287Z,-2.73
2019-01-21T22:33:02.609Z,-2.74
2019-01-21T22:35:50.760Z,-2.72
2019-01-21T22:38:38.686Z,-2.72
2019-01-21T22:41:26.518Z,-2.73
2019-01-21T22:44:14.043Z,-2.77
2019-01-21T22:47:01.214Z,-2.97
2019-01-21T22:49:48.892Z,-3.75
2019-01-21T22:52:41.852Z,-3.97
2019-01-21T22:55:26.300Z,-4.39
2019-01-21T22:58:14.132Z,-3.83
2019-01-21T23:01:04.941Z,-3.48
2019-01-21T23:03:52.985Z,-3.28
2019-01-21T23:06:40.196Z,-3.16
2019-01-21T23:09:28.028Z,-3.06
2019-01-21T23:12:15.680Z,-3.02
2019-01-21T23:15:03.387Z,-2.99
2019-01-21T23:17:50.403Z,-3.04
2019-01-21T23:20:38.131Z,-3.03
2019-01-21T23:23:26.375Z,-3.05
2019-01-21T23:26:14.358Z,-3.04
2019-01-21T23:29:02.146Z,-3.03
2019-01-21T23:31:50.283Z,-3.03
2019-01-21T23:34:37.923Z,-3.01
2019-01-21T23:37:25.338Z,-3.00
2019-01-21T23:40:13.579Z,-2.99
2019-01-21T23:43:01.424Z,-3.01
2019-01-21T23:45:49.965Z,-3.03
2019-01-21T23:48:37.800Z,-3.02
2019-01-21T23:51:25.634Z,-3.07
2019-01-21T23:54:13.215Z,-3.10
2019-01-21T23:57:00.893Z,-3.09
2019-01-21T23:59:49.131Z,-3.09
